Avera, Georgia
Current Conditions -  °F | °C
As of 7:15 AM on Monday 26 Jan 2015 (Local Time) from KOKZ Reporting Station
Broken Clouds Broken Clouds  
Wind Chill: 40°   Ceiling: 3600
Heat Index: 44°   Visibility: 10mi
Dew Point: 40°   Wind: 7mph
Humidity: 84%   Direction: 280°W
Pressure: 29.78"   Gusts: NA
Location:  33.19°N, 82.53°W
Report Text: KOKZ 261215Z AUTO 28006KT 10SM BKN036 07/04 A2978 RMK AO2 T00670042
Loading
Personal Weather Stations






























Interactive Weather Map New forecast layout! Learn more

10-Day Weather Forecast

Advertisements
Track Severe Weather on mobile